sensor_id;sensor_type;location;lat;lon;timestamp;P1;durP1;ratioP1;P2;durP2;ratioP2
77769;SDS011;66961;51.482;9.160;2023-10-31T00:01:28;10.30;;;6.60;;
77769;SDS011;66961;51.482;9.160;2023-10-31T00:03:53;10.20;;;7.38;;
77769;SDS011;66961;51.482;9.160;2023-10-31T00:06:19;10.10;;;6.90;;
77769;SDS011;66961;51.482;9.160;2023-10-31T00:08:44;11.03;;;6.90;;
77769;SDS011;66961;51.482;9.160;2023-10-31T00:11:09;11.57;;;7.10;;
77769;SDS011;66961;51.482;9.160;2023-10-31T00:13:34;9.23;;;7.17;;
77769;SDS011;66961;51.482;9.160;2023-10-31T00:16:00;9.67;;;6.47;;
77769;SDS011;66961;51.482;9.160;2023-10-31T00:18:25;12.30;;;6.27;;
77769;SDS011;66961;51.482;9.160;2023-10-31T00:20:50;8.17;;;5.37;;
77769;SDS011;66961;51.482;9.160;2023-10-31T00:23:15;9.20;;;5.83;;
77769;SDS011;66961;51.482;9.160;2023-10-31T00:25:41;7.90;;;6.40;;
77769;SDS011;66961;51.482;9.160;2023-10-31T00:28:06;8.87;;;5.70;;
77769;SDS011;66961;51.482;9.160;2023-10-31T00:30:31;8.33;;;4.97;;
77769;SDS011;66961;51.482;9.160;2023-10-31T00:32:56;8.70;;;5.67;;
77769;SDS011;66961;51.482;9.160;2023-10-31T00:35:22;7.37;;;5.53;;
77769;SDS011;66961;51.482;9.160;2023-10-31T00:37:47;7.55;;;5.65;;
77769;SDS011;66961;51.482;9.160;2023-10-31T00:40:12;10.60;;;6.60;;
77769;SDS011;66961;51.482;9.160;2023-10-31T00:42:38;9.63;;;6.40;;
77769;SDS011;66961;51.482;9.160;2023-10-31T00:45:03;7.68;;;6.03;;
77769;SDS011;66961;51.482;9.160;2023-10-31T00:47:29;7.60;;;6.28;;
77769;SDS011;66961;51.482;9.160;2023-10-31T00:49:54;6.80;;;5.20;;
77769;SDS011;66961;51.482;9.160;2023-10-31T00:52:20;6.97;;;5.30;;
77769;SDS011;66961;51.482;9.160;2023-10-31T00:54:45;6.97;;;5.17;;
77769;SDS011;66961;51.482;9.160;2023-10-31T00:57:10;7.23;;;4.60;;
77769;SDS011;66961;51.482;9.160;2023-10-31T00:59:35;6.63;;;4.10;;
77769;SDS011;66961;51.482;9.160;2023-10-31T01:02:01;4.93;;;3.70;;
77769;SDS011;66961;51.482;9.160;2023-10-31T01:04:26;4.97;;;3.77;;
77769;SDS011;66961;51.482;9.160;2023-10-31T01:06:51;6.07;;;3.47;;
77769;SDS011;66961;51.482;9.160;2023-10-31T01:09:16;3.70;;;3.05;;
77769;SDS011;66961;51.482;9.160;2023-10-31T01:11:42;6.10;;;3.00;;
77769;SDS011;66961;51.482;9.160;2023-10-31T01:14:07;5.50;;;3.17;;
77769;SDS011;66961;51.482;9.160;2023-10-31T01:16:32;3.77;;;2.93;;
77769;SDS011;66961;51.482;9.160;2023-10-31T01:18:58;3.50;;;2.90;;
77769;SDS011;66961;51.482;9.160;2023-10-31T01:21:23;5.87;;;2.77;;
77769;SDS011;66961;51.482;9.160;2023-10-31T01:23:48;2.63;;;2.07;;
77769;SDS011;66961;51.482;9.160;2023-10-31T01:26:13;2.70;;;1.90;;
77769;SDS011;66961;51.482;9.160;2023-10-31T01:28:39;3.50;;;2.30;;
77769;SDS011;66961;51.482;9.160;2023-10-31T01:31:04;2.37;;;1.90;;
77769;SDS011;66961;51.482;9.160;2023-10-31T01:33:29;3.07;;;1.87;;
77769;SDS011;66961;51.482;9.160;2023-10-31T01:35:54;2.20;;;1.53;;
77769;SDS011;66961;51.482;9.160;2023-10-31T01:38:20;1.93;;;1.10;;
77769;SDS011;66961;51.482;9.160;2023-10-31T01:40:48;2.80;;;1.52;;
77769;SDS011;66961;51.482;9.160;2023-10-31T01:43:28;2.15;;;1.50;;
77769;SDS011;66961;51.482;9.160;2023-10-31T01:45:54;3.10;;;1.33;;
77769;SDS011;66961;51.482;9.160;2023-10-31T01:48:19;1.60;;;1.13;;
77769;SDS011;66961;51.482;9.160;2023-10-31T01:50:45;3.78;;;1.33;;
77769;SDS011;66961;51.482;9.160;2023-10-31T01:53:10;2.23;;;1.20;;
77769;SDS011;66961;51.482;9.160;2023-10-31T01:55:35;1.87;;;1.17;;
77769;SDS011;66961;51.482;9.160;2023-10-31T01:58:01;3.70;;;1.10;;
77769;SDS011;66961;51.482;9.160;2023-10-31T02:00:26;2.43;;;1.00;;
77769;SDS011;66961;51.482;9.160;2023-10-31T02:02:52;2.08;;;0.95;;
77769;SDS011;66961;51.482;9.160;2023-10-31T02:05:18;1.77;;;0.95;;
77769;SDS011;66961;51.482;9.160;2023-10-31T02:07:44;11.68;;;1.73;;
77769;SDS011;66961;51.482;9.160;2023-10-31T02:10:10;1.92;;;1.00;;
77769;SDS011;66961;51.482;9.160;2023-10-31T02:12:36;1.30;;;0.90;;
77769;SDS011;66961;51.482;9.160;2023-10-31T02:15:02;4.53;;;1.08;;
77769;SDS011;66961;51.482;9.160;2023-10-31T02:17:29;1.90;;;1.00;;
77769;SDS011;66961;51.482;9.160;2023-10-31T02:19:54;2.13;;;1.27;;
77769;SDS011;66961;51.482;9.160;2023-10-31T02:22:20;2.22;;;1.67;;
77769;SDS011;66961;51.482;9.160;2023-10-31T02:24:46;1.77;;;1.67;;
77769;SDS011;66961;51.482;9.160;2023-10-31T02:27:12;2.50;;;1.77;;
77769;SDS011;66961;51.482;9.160;2023-10-31T02:29:38;2.17;;;1.83;;
77769;SDS011;66961;51.482;9.160;2023-10-31T02:32:04;2.10;;;1.90;;
77769;SDS011;66961;51.482;9.160;2023-10-31T02:34:29;2.45;;;1.88;;
77769;SDS011;66961;51.482;9.160;2023-10-31T02:36:55;1.20;;;1.10;;
77769;SDS011;66961;51.482;9.160;2023-10-31T02:39:20;1.70;;;0.80;;
77769;SDS011;66961;51.482;9.160;2023-10-31T02:41:45;1.20;;;1.10;;
77769;SDS011;66961;51.482;9.160;2023-10-31T02:44:10;1.03;;;0.90;;
77769;SDS011;66961;51.482;9.160;2023-10-31T02:46:39;1.20;;;1.08;;
77769;SDS011;66961;51.482;9.160;2023-10-31T02:49:04;1.73;;;0.80;;
77769;SDS011;66961;51.482;9.160;2023-10-31T02:51:29;0.90;;;0.60;;
77769;SDS011;66961;51.482;9.160;2023-10-31T02:53:54;0.70;;;0.60;;
77769;SDS011;66961;51.482;9.160;2023-10-31T02:56:20;1.07;;;0.70;;
77769;SDS011;66961;51.482;9.160;2023-10-31T02:58:45;0.70;;;0.55;;
77769;SDS011;66961;51.482;9.160;2023-10-31T03:01:10;0.80;;;0.50;;
77769;SDS011;66961;51.482;9.160;2023-10-31T03:03:35;2.50;;;0.80;;
77769;SDS011;66961;51.482;9.160;2023-10-31T03:06:01;0.77;;;0.53;;
77769;SDS011;66961;51.482;9.160;2023-10-31T03:08:26;2.53;;;0.60;;
77769;SDS011;66961;51.482;9.160;2023-10-31T03:10:51;2.70;;;0.60;;
77769;SDS011;66961;51.482;9.160;2023-10-31T03:13:17;0.77;;;0.50;;
77769;SDS011;66961;51.482;9.160;2023-10-31T03:15:43;0.70;;;0.45;;
77769;SDS011;66961;51.482;9.160;2023-10-31T03:18:08;1.02;;;0.60;;
77769;SDS011;66961;51.482;9.160;2023-10-31T03:20:34;1.20;;;0.57;;
77769;SDS011;66961;51.482;9.160;2023-10-31T03:22:59;0.93;;;0.47;;
77769;SDS011;66961;51.482;9.160;2023-10-31T03:25:24;1.90;;;0.50;;
77769;SDS011;66961;51.482;9.160;2023-10-31T03:27:50;1.43;;;0.50;;
77769;SDS011;66961;51.482;9.160;2023-10-31T03:30:15;0.60;;;0.50;;
77769;SDS011;66961;51.482;9.160;2023-10-31T03:32:40;1.07;;;0.70;;
77769;SDS011;66961;51.482;9.160;2023-10-31T03:35:05;1.17;;;0.70;;
77769;SDS011;66961;51.482;9.160;2023-10-31T03:37:31;0.82;;;0.55;;
77769;SDS011;66961;51.482;9.160;2023-10-31T03:39:56;1.07;;;0.50;;
77769;SDS011;66961;51.482;9.160;2023-10-31T03:42:21;1.10;;;0.77;;
77769;SDS011;66961;51.482;9.160;2023-10-31T03:44:47;1.20;;;0.50;;
77769;SDS011;66961;51.482;9.160;2023-10-31T03:47:12;1.00;;;0.70;;
77769;SDS011;66961;51.482;9.160;2023-10-31T03:49:39;2.60;;;1.63;;
77769;SDS011;66961;51.482;9.160;2023-10-31T03:52:05;1.90;;;1.00;;
77769;SDS011;66961;51.482;9.160;2023-10-31T03:54:30;1.30;;;0.80;;
77769;SDS011;66961;51.482;9.160;2023-10-31T03:56:55;1.23;;;0.90;;
77769;SDS011;66961;51.482;9.160;2023-10-31T03:59:21;1.63;;;1.23;;
77769;SDS011;66961;51.482;9.160;2023-10-31T04:01:46;1.80;;;0.63;;
77769;SDS011;66961;51.482;9.160;2023-10-31T04:04:11;3.23;;;0.70;;
77769;SDS011;66961;51.482;9.160;2023-10-31T04:06:36;1.17;;;0.70;;
77769;SDS011;66961;51.482;9.160;2023-10-31T04:09:02;1.10;;;0.40;;
77769;SDS011;66961;51.482;9.160;2023-10-31T04:11:27;0.95;;;0.60;;
77769;SDS011;66961;51.482;9.160;2023-10-31T04:13:52;1.77;;;0.70;;
77769;SDS011;66961;51.482;9.160;2023-10-31T04:16:18;0.90;;;0.50;;
77769;SDS011;66961;51.482;9.160;2023-10-31T04:18:43;1.10;;;0.60;;
77769;SDS011;66961;51.482;9.160;2023-10-31T04:21:08;0.97;;;0.50;;
77769;SDS011;66961;51.482;9.160;2023-10-31T04:23:33;1.30;;;0.80;;
77769;SDS011;66961;51.482;9.160;2023-10-31T04:25:59;1.47;;;0.63;;
77769;SDS011;66961;51.482;9.160;2023-10-31T04:28:24;1.33;;;0.60;;
77769;SDS011;66961;51.482;9.160;2023-10-31T04:30:49;0.83;;;0.50;;
77769;SDS011;66961;51.482;9.160;2023-10-31T04:33:14;1.27;;;0.70;;
77769;SDS011;66961;51.482;9.160;2023-10-31T04:35:40;3.23;;;0.60;;
77769;SDS011;66961;51.482;9.160;2023-10-31T04:38:05;2.27;;;0.70;;
77769;SDS011;66961;51.482;9.160;2023-10-31T04:40:30;1.40;;;0.70;;
77769;SDS011;66961;51.482;9.160;2023-10-31T04:42:56;2.00;;;0.60;;
77769;SDS011;66961;51.482;9.160;2023-10-31T04:45:21;2.00;;;0.98;;
77769;SDS011;66961;51.482;9.160;2023-10-31T04:47:46;2.47;;;0.97;;
77769;SDS011;66961;51.482;9.160;2023-10-31T04:50:12;4.80;;;1.08;;
77769;SDS011;66961;51.482;9.160;2023-10-31T04:52:37;2.10;;;0.80;;
77769;SDS011;66961;51.482;9.160;2023-10-31T04:55:02;2.53;;;1.10;;
77769;SDS011;66961;51.482;9.160;2023-10-31T04:57:28;3.15;;;1.00;;
77769;SDS011;66961;51.482;9.160;2023-10-31T04:59:53;1.60;;;1.10;;
77769;SDS011;66961;51.482;9.160;2023-10-31T05:02:18;2.00;;;1.03;;
77769;SDS011;66961;51.482;9.160;2023-10-31T05:04:46;2.78;;;1.15;;
77769;SDS011;66961;51.482;9.160;2023-10-31T05:07:11;4.37;;;1.27;;
77769;SDS011;66961;51.482;9.160;2023-10-31T05:09:36;2.10;;;1.30;;
77769;SDS011;66961;51.482;9.160;2023-10-31T05:12:02;1.63;;;1.07;;
77769;SDS011;66961;51.482;9.160;2023-10-31T05:14:27;1.58;;;0.95;;
77769;SDS011;66961;51.482;9.160;2023-10-31T05:16:52;2.10;;;0.97;;
77769;SDS011;66961;51.482;9.160;2023-10-31T05:19:17;2.83;;;1.00;;
77769;SDS011;66961;51.482;9.160;2023-10-31T05:21:43;2.47;;;1.00;;
77769;SDS011;66961;51.482;9.160;2023-10-31T05:24:08;1.38;;;0.90;;
77769;SDS011;66961;51.482;9.160;2023-10-31T05:26:34;1.17;;;0.80;;
77769;SDS011;66961;51.482;9.160;2023-10-31T05:28:59;2.50;;;0.73;;
77769;SDS011;66961;51.482;9.160;2023-10-31T05:31:24;1.20;;;0.70;;
77769;SDS011;66961;51.482;9.160;2023-10-31T05:33:50;2.10;;;0.75;;
77769;SDS011;66961;51.482;9.160;2023-10-31T05:36:20;1.00;;;0.60;;
77769;SDS011;66961;51.482;9.160;2023-10-31T05:38:46;2.00;;;0.73;;
77769;SDS011;66961;51.482;9.160;2023-10-31T05:41:12;1.73;;;0.60;;
77769;SDS011;66961;51.482;9.160;2023-10-31T05:43:37;2.13;;;0.70;;
77769;SDS011;66961;51.482;9.160;2023-10-31T05:46:02;0.73;;;0.60;;
77769;SDS011;66961;51.482;9.160;2023-10-31T05:48:28;1.23;;;0.88;;
77769;SDS011;66961;51.482;9.160;2023-10-31T05:50:53;1.57;;;0.90;;
77769;SDS011;66961;51.482;9.160;2023-10-31T05:53:18;2.57;;;0.80;;
77769;SDS011;66961;51.482;9.160;2023-10-31T05:55:44;3.23;;;0.90;;
77769;SDS011;66961;51.482;9.160;2023-10-31T05:58:09;2.30;;;0.90;;
77769;SDS011;66961;51.482;9.160;2023-10-31T06:00:34;1.77;;;0.90;;
77769;SDS011;66961;51.482;9.160;2023-10-31T06:02:59;1.27;;;1.00;;
77769;SDS011;66961;51.482;9.160;2023-10-31T06:05:25;3.15;;;0.98;;
77769;SDS011;66961;51.482;9.160;2023-10-31T06:07:50;1.60;;;1.07;;
77769;SDS011;66961;51.482;9.160;2023-10-31T06:10:15;3.33;;;1.23;;
77769;SDS011;66961;51.482;9.160;2023-10-31T06:12:40;1.83;;;1.07;;
77769;SDS011;66961;51.482;9.160;2023-10-31T06:15:06;3.07;;;1.37;;
77769;SDS011;66961;51.482;9.160;2023-10-31T06:17:32;3.90;;;1.63;;
77769;SDS011;66961;51.482;9.160;2023-10-31T06:19:57;1.70;;;1.17;;
77769;SDS011;66961;51.482;9.160;2023-10-31T06:22:22;2.57;;;1.60;;
77769;SDS011;66961;51.482;9.160;2023-10-31T06:24:47;2.63;;;2.27;;
77769;SDS011;66961;51.482;9.160;2023-10-31T06:27:13;1.70;;;1.50;;
77769;SDS011;66961;51.482;9.160;2023-10-31T06:29:38;3.00;;;1.90;;
77769;SDS011;66961;51.482;9.160;2023-10-31T06:32:03;2.93;;;1.77;;
77769;SDS011;66961;51.482;9.160;2023-10-31T06:34:29;2.25;;;1.60;;
77769;SDS011;66961;51.482;9.160;2023-10-31T06:36:54;3.50;;;2.00;;
77769;SDS011;66961;51.482;9.160;2023-10-31T06:39:19;2.53;;;1.93;;
77769;SDS011;66961;51.482;9.160;2023-10-31T06:41:44;5.00;;;2.00;;
77769;SDS011;66961;51.482;9.160;2023-10-31T06:44:10;2.53;;;1.70;;
77769;SDS011;66961;51.482;9.160;2023-10-31T06:46:35;3.57;;;1.67;;
77769;SDS011;66961;51.482;9.160;2023-10-31T06:49:00;1.97;;;1.63;;
77769;SDS011;66961;51.482;9.160;2023-10-31T06:51:25;2.87;;;1.70;;
77769;SDS011;66961;51.482;9.160;2023-10-31T06:53:51;2.83;;;1.87;;
77769;SDS011;66961;51.482;9.160;2023-10-31T06:56:16;2.40;;;1.53;;
77769;SDS011;66961;51.482;9.160;2023-10-31T06:58:43;2.35;;;1.92;;
77769;SDS011;66961;51.482;9.160;2023-10-31T07:01:08;2.00;;;1.70;;
77769;SDS011;66961;51.482;9.160;2023-10-31T07:03:33;2.70;;;1.73;;
77769;SDS011;66961;51.482;9.160;2023-10-31T07:05:58;1.70;;;1.60;;
77769;SDS011;66961;51.482;9.160;2023-10-31T07:08:24;3.20;;;1.20;;
77769;SDS011;66961;51.482;9.160;2023-10-31T07:10:49;1.60;;;1.30;;
77769;SDS011;66961;51.482;9.160;2023-10-31T07:13:14;1.67;;;1.33;;
77769;SDS011;66961;51.482;9.160;2023-10-31T07:15:39;1.75;;;1.50;;
77769;SDS011;66961;51.482;9.160;2023-10-31T07:18:05;1.60;;;1.40;;
77769;SDS011;66961;51.482;9.160;2023-10-31T07:20:31;1.80;;;1.27;;
77769;SDS011;66961;51.482;9.160;2023-10-31T07:22:56;2.87;;;1.40;;
77769;SDS011;66961;51.482;9.160;2023-10-31T07:25:21;2.93;;;1.27;;
77769;SDS011;66961;51.482;9.160;2023-10-31T07:27:46;1.37;;;0.90;;
77769;SDS011;66961;51.482;9.160;2023-10-31T07:30:12;2.57;;;1.23;;
77769;SDS011;66961;51.482;9.160;2023-10-31T07:32:37;1.05;;;0.95;;
77769;SDS011;66961;51.482;9.160;2023-10-31T07:35:03;2.30;;;0.80;;
77769;SDS011;66961;51.482;9.160;2023-10-31T07:37:28;2.33;;;0.80;;
77769;SDS011;66961;51.482;9.160;2023-10-31T07:39:53;1.10;;;0.93;;
77769;SDS011;66961;51.482;9.160;2023-10-31T07:42:19;0.80;;;0.80;;
77769;SDS011;66961;51.482;9.160;2023-10-31T07:44:44;0.93;;;0.70;;
77769;SDS011;66961;51.482;9.160;2023-10-31T07:47:09;1.10;;;0.70;;
77769;SDS011;66961;51.482;9.160;2023-10-31T07:49:34;1.70;;;0.90;;
77769;SDS011;66961;51.482;9.160;2023-10-31T07:52:00;1.17;;;0.90;;
77769;SDS011;66961;51.482;9.160;2023-10-31T07:54:25;1.00;;;0.70;;
77769;SDS011;66961;51.482;9.160;2023-10-31T07:56:50;1.50;;;1.00;;
77769;SDS011;66961;51.482;9.160;2023-10-31T07:59:15;1.00;;;0.70;;
77769;SDS011;66961;51.482;9.160;2023-10-31T08:01:41;1.57;;;0.80;;
77769;SDS011;66961;51.482;9.160;2023-10-31T08:04:06;1.03;;;0.90;;
77769;SDS011;66961;51.482;9.160;2023-10-31T08:06:31;1.10;;;0.80;;
77769;SDS011;66961;51.482;9.160;2023-10-31T08:08:57;1.88;;;0.85;;
77769;SDS011;66961;51.482;9.160;2023-10-31T08:11:22;1.25;;;1.08;;
77769;SDS011;66961;51.482;9.160;2023-10-31T08:13:47;1.10;;;0.90;;
77769;SDS011;66961;51.482;9.160;2023-10-31T08:16:16;0.93;;;0.80;;
77769;SDS011;66961;51.482;9.160;2023-10-31T08:18:43;3.92;;;1.30;;
77769;SDS011;66961;51.482;9.160;2023-10-31T08:21:08;1.58;;;0.90;;
77769;SDS011;66961;51.482;9.160;2023-10-31T08:23:33;2.70;;;0.80;;
77769;SDS011;66961;51.482;9.160;2023-10-31T08:25:59;3.63;;;0.90;;
77769;SDS011;66961;51.482;9.160;2023-10-31T08:28:24;3.47;;;0.90;;
77769;SDS011;66961;51.482;9.160;2023-10-31T08:30:49;2.05;;;1.00;;
77769;SDS011;66961;51.482;9.160;2023-10-31T08:33:15;1.73;;;1.10;;
77769;SDS011;66961;51.482;9.160;2023-10-31T08:35:40;1.10;;;0.80;;
77769;SDS011;66961;51.482;9.160;2023-10-31T08:38:05;4.25;;;0.95;;
77769;SDS011;66961;51.482;9.160;2023-10-31T08:40:31;1.40;;;1.00;;
77769;SDS011;66961;51.482;9.160;2023-10-31T08:42:56;1.87;;;0.90;;
77769;SDS011;66961;51.482;9.160;2023-10-31T08:45:21;1.42;;;0.93;;
77769;SDS011;66961;51.482;9.160;2023-10-31T08:47:47;2.25;;;1.00;;
77769;SDS011;66961;51.482;9.160;2023-10-31T08:50:12;1.20;;;0.80;;
77769;SDS011;66961;51.482;9.160;2023-10-31T08:52:37;1.98;;;0.85;;
77769;SDS011;66961;51.482;9.160;2023-10-31T08:55:03;1.42;;;0.80;;
77769;SDS011;66961;51.482;9.160;2023-10-31T08:57:29;1.20;;;1.00;;
77769;SDS011;66961;51.482;9.160;2023-10-31T08:59:55;1.75;;;0.95;;
77769;SDS011;66961;51.482;9.160;2023-10-31T09:02:20;1.58;;;1.30;;
77769;SDS011;66961;51.482;9.160;2023-10-31T09:04:45;2.92;;;1.23;;
77769;SDS011;66961;51.482;9.160;2023-10-31T09:07:11;2.13;;;1.60;;
77769;SDS011;66961;51.482;9.160;2023-10-31T09:09:36;1.55;;;1.02;;
77769;SDS011;66961;51.482;9.160;2023-10-31T09:12:02;2.90;;;1.27;;
77769;SDS011;66961;51.482;9.160;2023-10-31T09:14:27;2.42;;;1.08;;
77769;SDS011;66961;51.482;9.160;2023-10-31T09:16:53;1.00;;;0.70;;
77769;SDS011;66961;51.482;9.160;2023-10-31T09:19:18;1.30;;;0.75;;
77769;SDS011;66961;51.482;9.160;2023-10-31T09:21:43;1.83;;;0.93;;
77769;SDS011;66961;51.482;9.160;2023-10-31T09:24:09;1.73;;;1.13;;
77769;SDS011;66961;51.482;9.160;2023-10-31T09:26:35;1.77;;;0.95;;
77769;SDS011;66961;51.482;9.160;2023-10-31T09:29:00;2.50;;;1.05;;
77769;SDS011;66961;51.482;9.160;2023-10-31T09:31:25;2.00;;;1.07;;
77769;SDS011;66961;51.482;9.160;2023-10-31T09:33:50;2.10;;;1.40;;
77769;SDS011;66961;51.482;9.160;2023-10-31T09:36:16;1.75;;;1.55;;
77769;SDS011;66961;51.482;9.160;2023-10-31T09:38:41;3.08;;;1.50;;
77769;SDS011;66961;51.482;9.160;2023-10-31T09:41:07;2.57;;;2.07;;
77769;SDS011;66961;51.482;9.160;2023-10-31T09:43:32;3.97;;;2.00;;
77769;SDS011;66961;51.482;9.160;2023-10-31T09:45:57;3.53;;;2.72;;
77769;SDS011;66961;51.482;9.160;2023-10-31T09:48:23;2.75;;;2.13;;
77769;SDS011;66961;51.482;9.160;2023-10-31T09:50:49;3.17;;;2.20;;
77769;SDS011;66961;51.482;9.160;2023-10-31T09:53:15;2.45;;;1.65;;
77769;SDS011;66961;51.482;9.160;2023-10-31T09:55:41;2.70;;;2.30;;
77769;SDS011;66961;51.482;9.160;2023-10-31T09:58:06;3.47;;;1.92;;
77769;SDS011;66961;51.482;9.160;2023-10-31T10:00:31;3.97;;;2.07;;
77769;SDS011;66961;51.482;9.160;2023-10-31T10:02:57;3.53;;;2.03;;
77769;SDS011;66961;51.482;9.160;2023-10-31T10:05:24;3.85;;;2.20;;
77769;SDS011;66961;51.482;9.160;2023-10-31T10:07:50;7.75;;;2.50;;
77769;SDS011;66961;51.482;9.160;2023-10-31T10:10:15;2.70;;;2.00;;
77769;SDS011;66961;51.482;9.160;2023-10-31T10:12:41;2.83;;;2.22;;
77769;SDS011;66961;51.482;9.160;2023-10-31T10:15:09;2.97;;;2.10;;
77769;SDS011;66961;51.482;9.160;2023-10-31T10:17:36;2.85;;;2.28;;
77769;SDS011;66961;51.482;9.160;2023-10-31T10:20:08;4.50;;;2.30;;
77769;SDS011;66961;51.482;9.160;2023-10-31T10:22:41;2.22;;;2.03;;
77769;SDS011;66961;51.482;9.160;2023-10-31T10:25:14;3.78;;;2.30;;
77769;SDS011;66961;51.482;9.160;2023-10-31T10:27:41;2.20;;;1.70;;
77769;SDS011;66961;51.482;9.160;2023-10-31T10:30:07;3.83;;;2.10;;
77769;SDS011;66961;51.482;9.160;2023-10-31T10:32:33;2.70;;;1.77;;
77769;SDS011;66961;51.482;9.160;2023-10-31T10:34:58;2.97;;;1.75;;
77769;SDS011;66961;51.482;9.160;2023-10-31T10:37:25;4.07;;;1.55;;
77769;SDS011;66961;51.482;9.160;2023-10-31T10:39:51;2.38;;;1.52;;
77769;SDS011;66961;51.482;9.160;2023-10-31T10:42:17;2.25;;;1.50;;
77769;SDS011;66961;51.482;9.160;2023-10-31T10:44:43;1.85;;;1.13;;
77769;SDS011;66961;51.482;9.160;2023-10-31T10:47:09;1.83;;;1.50;;
77769;SDS011;66961;51.482;9.160;2023-10-31T10:49:37;3.63;;;1.67;;
77769;SDS011;66961;51.482;9.160;2023-10-31T10:59:42;1.77;;;1.08;;
77769;SDS011;66961;51.482;9.160;2023-10-31T11:02:11;2.08;;;0.85;;
77769;SDS011;66961;51.482;9.160;2023-10-31T11:04:37;2.53;;;1.15;;
77769;SDS011;66961;51.482;9.160;2023-10-31T11:07:04;1.60;;;0.70;;
77769;SDS011;66961;51.482;9.160;2023-10-31T11:09:30;1.55;;;0.90;;
77769;SDS011;66961;51.482;9.160;2023-10-31T11:11:56;2.83;;;1.10;;
77769;SDS011;66961;51.482;9.160;2023-10-31T11:14:22;1.63;;;0.85;;
77769;SDS011;66961;51.482;9.160;2023-10-31T11:16:49;1.90;;;0.80;;
77769;SDS011;66961;51.482;9.160;2023-10-31T11:19:20;1.60;;;0.88;;
77769;SDS011;66961;51.482;9.160;2023-10-31T11:22:00;1.10;;;0.85;;
77769;SDS011;66961;51.482;9.160;2023-10-31T11:24:34;2.13;;;0.80;;
77769;SDS011;66961;51.482;9.160;2023-10-31T11:27:02;2.15;;;0.90;;
77769;SDS011;66961;51.482;9.160;2023-10-31T11:29:30;1.45;;;0.75;;
77769;SDS011;66961;51.482;9.160;2023-10-31T11:31:56;0.85;;;0.60;;
77769;SDS011;66961;51.482;9.160;2023-10-31T11:34:22;2.55;;;0.70;;
77769;SDS011;66961;51.482;9.160;2023-10-31T11:36:48;1.20;;;0.70;;
77769;SDS011;66961;51.482;9.160;2023-10-31T11:39:17;1.50;;;0.70;;
77769;SDS011;66961;51.482;9.160;2023-10-31T11:41:50;1.17;;;0.70;;
77769;SDS011;66961;51.482;9.160;2023-10-31T11:44:23;1.98;;;0.88;;
77769;SDS011;66961;51.482;9.160;2023-10-31T11:46:51;3.00;;;1.05;;
77769;SDS011;66961;51.482;9.160;2023-10-31T11:49:16;2.70;;;1.00;;
77769;SDS011;66961;51.482;9.160;2023-10-31T11:51:44;1.93;;;0.80;;
77769;SDS011;66961;51.482;9.160;2023-10-31T11:54:09;1.73;;;1.00;;
77769;SDS011;66961;51.482;9.160;2023-10-31T11:56:35;1.92;;;0.80;;
77769;SDS011;66961;51.482;9.160;2023-10-31T11:59:02;1.93;;;0.70;;
77769;SDS011;66961;51.482;9.160;2023-10-31T12:01:29;2.10;;;1.05;;
77769;SDS011;66961;51.482;9.160;2023-10-31T12:03:55;2.75;;;1.15;;
77769;SDS011;66961;51.482;9.160;2023-10-31T12:06:20;2.45;;;1.17;;
77769;SDS011;66961;51.482;9.160;2023-10-31T12:08:46;1.60;;;1.00;;
77769;SDS011;66961;51.482;9.160;2023-10-31T12:11:12;3.13;;;1.30;;
77769;SDS011;66961;51.482;9.160;2023-10-31T12:13:39;1.65;;;1.05;;
77769;SDS011;66961;51.482;9.160;2023-10-31T12:16:07;2.42;;;1.00;;
77769;SDS011;66961;51.482;9.160;2023-10-31T12:18:34;2.13;;;1.10;;
77769;SDS011;66961;51.482;9.160;2023-10-31T12:21:00;6.22;;;1.20;;
77769;SDS011;66961;51.482;9.160;2023-10-31T12:23:25;9.88;;;1.10;;
77769;SDS011;66961;51.482;9.160;2023-10-31T12:25:51;1.70;;;0.87;;
77769;SDS011;66961;51.482;9.160;2023-10-31T12:28:20;2.05;;;1.15;;
77769;SDS011;66961;51.482;9.160;2023-10-31T12:30:50;1.70;;;1.00;;
77769;SDS011;66961;51.482;9.160;2023-10-31T12:33:17;2.70;;;1.23;;
77769;SDS011;66961;51.482;9.160;2023-10-31T12:35:42;3.47;;;1.25;;
77769;SDS011;66961;51.482;9.160;2023-10-31T12:38:11;1.60;;;1.30;;
77769;SDS011;66961;51.482;9.160;2023-10-31T12:40:38;2.95;;;1.60;;
77769;SDS011;66961;51.482;9.160;2023-10-31T12:43:05;7.10;;;1.38;;
77769;SDS011;66961;51.482;9.160;2023-10-31T12:45:31;4.47;;;1.50;;
77769;SDS011;66961;51.482;9.160;2023-10-31T12:48:07;2.67;;;1.23;;
77769;SDS011;66961;51.482;9.160;2023-10-31T12:52:59;1.88;;;1.20;;
77769;SDS011;66961;51.482;9.160;2023-10-31T12:55:28;2.80;;;1.50;;
77769;SDS011;66961;51.482;9.160;2023-10-31T12:57:55;2.22;;;1.25;;
77769;SDS011;66961;51.482;9.160;2023-10-31T13:00:21;2.38;;;1.20;;
77769;SDS011;66961;51.482;9.160;2023-10-31T13:02:47;3.67;;;1.33;;
77769;SDS011;66961;51.482;9.160;2023-10-31T13:05:13;4.50;;;1.30;;
77769;SDS011;66961;51.482;9.160;2023-10-31T13:07:40;5.05;;;1.50;;
77769;SDS011;66961;51.482;9.160;2023-10-31T13:10:12;2.33;;;1.20;;
77769;SDS011;66961;51.482;9.160;2023-10-31T13:12:40;3.88;;;1.27;;
77769;SDS011;66961;51.482;9.160;2023-10-31T13:15:08;2.60;;;1.17;;
77769;SDS011;66961;51.482;9.160;2023-10-31T13:17:34;1.48;;;1.10;;
77769;SDS011;66961;51.482;9.160;2023-10-31T13:19:59;3.60;;;1.27;;
77769;SDS011;66961;51.482;9.160;2023-10-31T13:22:24;4.35;;;1.27;;
77769;SDS011;66961;51.482;9.160;2023-10-31T13:24:50;3.67;;;1.55;;
77769;SDS011;66961;51.482;9.160;2023-10-31T13:27:15;2.58;;;1.00;;
77769;SDS011;66961;51.482;9.160;2023-10-31T13:29:40;3.22;;;1.10;;
77769;SDS011;66961;51.482;9.160;2023-10-31T13:32:06;3.78;;;1.55;;
77769;SDS011;66961;51.482;9.160;2023-10-31T13:34:31;4.25;;;1.38;;
77769;SDS011;66961;51.482;9.160;2023-10-31T13:36:56;4.97;;;1.20;;
77769;SDS011;66961;51.482;9.160;2023-10-31T13:39:22;7.93;;;1.63;;
77769;SDS011;66961;51.482;9.160;2023-10-31T13:41:47;4.25;;;1.13;;
77769;SDS011;66961;51.482;9.160;2023-10-31T13:44:13;2.05;;;1.33;;
77769;SDS011;66961;51.482;9.160;2023-10-31T13:46:38;3.87;;;1.00;;
77769;SDS011;66961;51.482;9.160;2023-10-31T13:49:03;2.70;;;1.20;;
77769;SDS011;66961;51.482;9.160;2023-10-31T13:51:29;3.15;;;1.15;;
77769;SDS011;66961;51.482;9.160;2023-10-31T13:53:54;5.00;;;1.45;;
77769;SDS011;66961;51.482;9.160;2023-10-31T13:56:19;6.70;;;1.50;;
77769;SDS011;66961;51.482;9.160;2023-10-31T13:58:45;3.28;;;1.30;;
77769;SDS011;66961;51.482;9.160;2023-10-31T14:01:10;7.68;;;1.65;;
77769;SDS011;66961;51.482;9.160;2023-10-31T14:03:35;2.38;;;1.15;;
77769;SDS011;66961;51.482;9.160;2023-10-31T14:06:01;3.70;;;1.30;;
77769;SDS011;66961;51.482;9.160;2023-10-31T14:08:26;2.35;;;1.27;;
77769;SDS011;66961;51.482;9.160;2023-10-31T14:10:51;4.40;;;1.33;;
77769;SDS011;66961;51.482;9.160;2023-10-31T14:13:17;4.57;;;1.42;;
77769;SDS011;66961;51.482;9.160;2023-10-31T14:15:42;4.05;;;1.25;;
77769;SDS011;66961;51.482;9.160;2023-10-31T14:18:07;2.83;;;1.20;;
77769;SDS011;66961;51.482;9.160;2023-10-31T14:20:33;4.07;;;1.42;;
77769;SDS011;66961;51.482;9.160;2023-10-31T14:22:58;4.33;;;1.17;;
77769;SDS011;66961;51.482;9.160;2023-10-31T14:25:23;4.70;;;1.43;;
77769;SDS011;66961;51.482;9.160;2023-10-31T14:27:48;7.03;;;1.80;;
77769;SDS011;66961;51.482;9.160;2023-10-31T14:30:14;4.43;;;1.27;;
77769;SDS011;66961;51.482;9.160;2023-10-31T14:32:39;7.15;;;1.60;;
77769;SDS011;66961;51.482;9.160;2023-10-31T14:35:05;3.97;;;1.27;;
77769;SDS011;66961;51.482;9.160;2023-10-31T14:37:31;4.32;;;1.52;;
77769;SDS011;66961;51.482;9.160;2023-10-31T14:39:56;5.47;;;1.55;;
77769;SDS011;66961;51.482;9.160;2023-10-31T14:42:21;4.28;;;1.25;;
77769;SDS011;66961;51.482;9.160;2023-10-31T14:44:47;3.63;;;1.20;;
77769;SDS011;66961;51.482;9.160;2023-10-31T14:47:12;3.45;;;1.67;;
77769;SDS011;66961;51.482;9.160;2023-10-31T14:49:38;5.75;;;1.48;;